sensor_id;sensor_type;location;lat;lon;timestamp;temperature;humidity
27801;DHT22;15181;49.112;11.930;2022-09-09T00:00:24;13.70;99.90
27801;DHT22;15181;49.112;11.930;2022-09-09T00:02:59;13.70;99.90
27801;DHT22;15181;49.112;11.930;2022-09-09T00:05:32;13.70;99.90
27801;DHT22;15181;49.112;11.930;2022-09-09T00:08:02;13.70;99.90
27801;DHT22;15181;49.112;11.930;2022-09-09T00:10:32;13.60;99.90
27801;DHT22;15181;49.112;11.930;2022-09-09T00:13:10;13.50;99.90
27801;DHT22;15181;49.112;11.930;2022-09-09T00:15:44;13.40;99.90
27801;DHT22;15181;49.112;11.930;2022-09-09T00:18:19;13.50;99.90
27801;DHT22;15181;49.112;11.930;2022-09-09T00:20:52;13.40;99.90
27801;DHT22;15181;49.112;11.930;2022-09-09T00:23:25;13.40;99.90
27801;DHT22;15181;49.112;11.930;2022-09-09T00:26:02;13.40;99.90
27801;DHT22;15181;49.112;11.930;2022-09-09T00:28:38;13.40;99.90
27801;DHT22;15181;49.112;11.930;2022-09-09T00:31:12;13.30;99.90
27801;DHT22;15181;49.112;11.930;2022-09-09T00:33:40;13.30;99.90
27801;DHT22;15181;49.112;11.930;2022-09-09T00:36:13;13.30;99.90
27801;DHT22;15181;49.112;11.930;2022-09-09T00:38:44;13.30;99.90
27801;DHT22;15181;49.112;11.930;2022-09-09T00:41:20;13.30;99.90
27801;DHT22;15181;49.112;11.930;2022-09-09T00:43:56;13.40;99.90
27801;DHT22;15181;49.112;11.930;2022-09-09T00:46:51;13.50;99.90
27801;DHT22;15181;49.112;11.930;2022-09-09T00:49:32;13.50;99.90
27801;DHT22;15181;49.112;11.930;2022-09-09T00:52:12;13.50;99.90
27801;DHT22;15181;49.112;11.930;2022-09-09T00:54:48;13.50;99.90
27801;DHT22;15181;49.112;11.930;2022-09-09T00:57:25;13.40;99.90
27801;DHT22;15181;49.112;11.930;2022-09-09T01:02:44;13.40;99.90
27801;DHT22;15181;49.112;11.930;2022-09-09T01:05:20;13.30;99.90
27801;DHT22;15181;49.112;11.930;2022-09-09T01:07:49;13.20;99.90
27801;DHT22;15181;49.112;11.930;2022-09-09T01:10:25;13.20;99.90
27801;DHT22;15181;49.112;11.930;2022-09-09T01:12:56;13.30;99.90
27801;DHT22;15181;49.112;11.930;2022-09-09T01:15:29;13.30;99.90
27801;DHT22;15181;49.112;11.930;2022-09-09T01:18:01;13.40;99.90
27801;DHT22;15181;49.112;11.930;2022-09-09T01:20:34;13.30;99.90
27801;DHT22;15181;49.112;11.930;2022-09-09T01:23:32;13.20;99.90
27801;DHT22;15181;49.112;11.930;2022-09-09T01:26:21;13.30;99.90
27801;DHT22;15181;49.112;11.930;2022-09-09T01:28:51;13.30;99.90
27801;DHT22;15181;49.112;11.930;2022-09-09T01:31:22;13.40;99.90
27801;DHT22;15181;49.112;11.930;2022-09-09T01:33:50;13.50;99.90
27801;DHT22;15181;49.112;11.930;2022-09-09T01:36:26;13.50;99.90
27801;DHT22;15181;49.112;11.930;2022-09-09T01:38:54;13.70;99.90
27801;DHT22;15181;49.112;11.930;2022-09-09T01:41:23;13.70;99.90
27801;DHT22;15181;49.112;11.930;2022-09-09T01:43:50;13.70;99.90
27801;DHT22;15181;49.112;11.930;2022-09-09T01:46:21;13.80;99.90
27801;DHT22;15181;49.112;11.930;2022-09-09T01:48:48;13.90;99.90
27801;DHT22;15181;49.112;11.930;2022-09-09T01:51:16;13.90;99.90
27801;DHT22;15181;49.112;11.930;2022-09-09T01:53:43;14.00;99.90
27801;DHT22;15181;49.112;11.930;2022-09-09T01:56:19;14.00;99.90
27801;DHT22;15181;49.112;11.930;2022-09-09T01:59:01;14.10;99.90
27801;DHT22;15181;49.112;11.930;2022-09-09T02:01:38;14.20;99.90
27801;DHT22;15181;49.112;11.930;2022-09-09T02:04:18;14.20;99.90
27801;DHT22;15181;49.112;11.930;2022-09-09T02:06:48;14.30;99.90
27801;DHT22;15181;49.112;11.930;2022-09-09T02:09:19;14.40;99.90
27801;DHT22;15181;49.112;11.930;2022-09-09T02:11:54;14.40;99.90
27801;DHT22;15181;49.112;11.930;2022-09-09T02:14:29;14.50;99.90
27801;DHT22;15181;49.112;11.930;2022-09-09T02:17:01;14.50;99.90
27801;DHT22;15181;49.112;11.930;2022-09-09T02:19:32;14.60;99.90
27801;DHT22;15181;49.112;11.930;2022-09-09T02:22:02;14.60;99.90
27801;DHT22;15181;49.112;11.930;2022-09-09T02:24:32;14.60;99.90
27801;DHT22;15181;49.112;11.930;2022-09-09T02:27:02;14.70;99.90
27801;DHT22;15181;49.112;11.930;2022-09-09T02:29:35;14.70;99.90
27801;DHT22;15181;49.112;11.930;2022-09-09T02:32:06;14.70;99.90
27801;DHT22;15181;49.112;11.930;2022-09-09T02:34:35;14.70;99.90
27801;DHT22;15181;49.112;11.930;2022-09-09T02:37:03;14.70;99.90
27801;DHT22;15181;49.112;11.930;2022-09-09T02:39:31;14.70;99.90
27801;DHT22;15181;49.112;11.930;2022-09-09T02:41:58;14.70;99.90
27801;DHT22;15181;49.112;11.930;2022-09-09T02:44:25;14.70;99.90
27801;DHT22;15181;49.112;11.930;2022-09-09T02:47:13;14.70;99.90
27801;DHT22;15181;49.112;11.930;2022-09-09T02:49:47;14.80;99.90
27801;DHT22;15181;49.112;11.930;2022-09-09T02:52:20;14.80;99.90
27801;DHT22;15181;49.112;11.930;2022-09-09T02:54:54;14.80;99.90
27801;DHT22;15181;49.112;11.930;2022-09-09T02:57:26;14.80;99.90
27801;DHT22;15181;49.112;11.930;2022-09-09T02:59:57;14.80;99.90
27801;DHT22;15181;49.112;11.930;2022-09-09T03:02:26;14.80;99.90
27801;DHT22;15181;49.112;11.930;2022-09-09T03:04:53;14.70;99.90
27801;DHT22;15181;49.112;11.930;2022-09-09T03:07:20;14.70;99.90
27801;DHT22;15181;49.112;11.930;2022-09-09T03:09:47;14.70;99.90
27801;DHT22;15181;49.112;11.930;2022-09-09T03:12:14;14.70;99.90
27801;DHT22;15181;49.112;11.930;2022-09-09T03:14:41;14.70;99.90
27801;DHT22;15181;49.112;11.930;2022-09-09T03:17:09;14.70;99.90
27801;DHT22;15181;49.112;11.930;2022-09-09T03:19:37;14.70;99.90
27801;DHT22;15181;49.112;11.930;2022-09-09T03:22:05;14.70;99.90
27801;DHT22;15181;49.112;11.930;2022-09-09T03:24:32;14.70;99.90
27801;DHT22;15181;49.112;11.930;2022-09-09T03:26:59;14.70;99.90
27801;DHT22;15181;49.112;11.930;2022-09-09T03:29:26;14.70;99.90
27801;DHT22;15181;49.112;11.930;2022-09-09T03:31:53;14.70;99.90
27801;DHT22;15181;49.112;11.930;2022-09-09T03:34:20;14.70;99.90
27801;DHT22;15181;49.112;11.930;2022-09-09T03:36:48;14.70;99.90
27801;DHT22;15181;49.112;11.930;2022-09-09T03:39:15;14.70;99.90
27801;DHT22;15181;49.112;11.930;2022-09-09T03:41:42;14.80;99.90
27801;DHT22;15181;49.112;11.930;2022-09-09T03:44:13;14.80;99.90
27801;DHT22;15181;49.112;11.930;2022-09-09T03:46:40;14.80;99.90
27801;DHT22;15181;49.112;11.930;2022-09-09T03:49:07;14.90;99.90
27801;DHT22;15181;49.112;11.930;2022-09-09T03:51:35;14.90;99.90
27801;DHT22;15181;49.112;11.930;2022-09-09T03:54:05;15.10;99.90
27801;DHT22;15181;49.112;11.930;2022-09-09T03:56:34;15.10;99.90
27801;DHT22;15181;49.112;11.930;2022-09-09T03:59:01;14.90;99.90
27801;DHT22;15181;49.112;11.930;2022-09-09T04:01:28;14.90;99.90
27801;DHT22;15181;49.112;11.930;2022-09-09T04:03:55;14.90;99.90
27801;DHT22;15181;49.112;11.930;2022-09-09T04:06:24;14.90;99.90
27801;DHT22;15181;49.112;11.930;2022-09-09T04:08:51;14.90;99.90
27801;DHT22;15181;49.112;11.930;2022-09-09T04:11:20;14.90;99.90
27801;DHT22;15181;49.112;11.930;2022-09-09T04:13:47;14.90;99.90
27801;DHT22;15181;49.112;11.930;2022-09-09T04:16:14;14.90;99.90
27801;DHT22;15181;49.112;11.930;2022-09-09T04:18:41;14.90;99.90
27801;DHT22;15181;49.112;11.930;2022-09-09T04:21:09;14.90;99.90
27801;DHT22;15181;49.112;11.930;2022-09-09T04:23:37;14.90;99.90
27801;DHT22;15181;49.112;11.930;2022-09-09T04:26:05;14.90;99.90
27801;DHT22;15181;49.112;11.930;2022-09-09T04:28:35;14.90;99.90
27801;DHT22;15181;49.112;11.930;2022-09-09T04:31:06;14.90;99.90
27801;DHT22;15181;49.112;11.930;2022-09-09T04:33:34;14.90;99.90
27801;DHT22;15181;49.112;11.930;2022-09-09T04:36:01;15.00;99.90
27801;DHT22;15181;49.112;11.930;2022-09-09T04:38:28;15.00;99.90
27801;DHT22;15181;49.112;11.930;2022-09-09T04:40:55;15.00;99.90
27801;DHT22;15181;49.112;11.930;2022-09-09T04:43:22;15.00;99.90
27801;DHT22;15181;49.112;11.930;2022-09-09T04:45:53;15.00;99.90
27801;DHT22;15181;49.112;11.930;2022-09-09T04:48:20;14.90;99.90
27801;DHT22;15181;49.112;11.930;2022-09-09T04:50:54;15.00;99.90
27801;DHT22;15181;49.112;11.930;2022-09-09T04:53:21;14.90;99.90
27801;DHT22;15181;49.112;11.930;2022-09-09T04:55:48;15.00;99.90
27801;DHT22;15181;49.112;11.930;2022-09-09T04:58:16;14.90;99.90
27801;DHT22;15181;49.112;11.930;2022-09-09T05:00:44;14.90;99.90
27801;DHT22;15181;49.112;11.930;2022-09-09T05:03:12;15.00;99.90
27801;DHT22;15181;49.112;11.930;2022-09-09T05:05:39;14.90;99.90
27801;DHT22;15181;49.112;11.930;2022-09-09T05:08:07;14.90;99.90
27801;DHT22;15181;49.112;11.930;2022-09-09T05:10:37;14.90;99.90
27801;DHT22;15181;49.112;11.930;2022-09-09T05:13:05;15.00;99.90
27801;DHT22;15181;49.112;11.930;2022-09-09T05:15:32;15.00;99.90
27801;DHT22;15181;49.112;11.930;2022-09-09T05:18:00;15.00;99.90
27801;DHT22;15181;49.112;11.930;2022-09-09T05:20:29;15.00;99.90
27801;DHT22;15181;49.112;11.930;2022-09-09T05:22:57;15.00;99.90
27801;DHT22;15181;49.112;11.930;2022-09-09T05:25:24;15.00;99.90
27801;DHT22;15181;49.112;11.930;2022-09-09T05:27:51;15.00;99.90
27801;DHT22;15181;49.112;11.930;2022-09-09T05:30:19;15.10;99.90
27801;DHT22;15181;49.112;11.930;2022-09-09T05:32:46;15.00;99.90
27801;DHT22;15181;49.112;11.930;2022-09-09T05:35:14;15.10;99.90
27801;DHT22;15181;49.112;11.930;2022-09-09T05:37:43;15.10;99.90
27801;DHT22;15181;49.112;11.930;2022-09-09T05:40:11;15.10;99.90
27801;DHT22;15181;49.112;11.930;2022-09-09T05:42:38;15.10;99.90
27801;DHT22;15181;49.112;11.930;2022-09-09T05:45:06;15.10;99.90
27801;DHT22;15181;49.112;11.930;2022-09-09T05:47:33;15.20;99.90
27801;DHT22;15181;49.112;11.930;2022-09-09T05:50:00;15.20;99.90
27801;DHT22;15181;49.112;11.930;2022-09-09T05:52:27;15.20;99.90
27801;DHT22;15181;49.112;11.930;2022-09-09T05:54:56;15.20;99.90
27801;DHT22;15181;49.112;11.930;2022-09-09T05:57:23;15.20;99.90
27801;DHT22;15181;49.112;11.930;2022-09-09T05:59:49;15.10;99.90
27801;DHT22;15181;49.112;11.930;2022-09-09T06:02:16;15.10;99.90
27801;DHT22;15181;49.112;11.930;2022-09-09T06:04:43;15.10;99.90
27801;DHT22;15181;49.112;11.930;2022-09-09T06:07:10;15.10;99.90
27801;DHT22;15181;49.112;11.930;2022-09-09T06:09:37;15.10;99.90
27801;DHT22;15181;49.112;11.930;2022-09-09T06:12:06;15.10;99.90
27801;DHT22;15181;49.112;11.930;2022-09-09T06:14:33;15.10;99.90
27801;DHT22;15181;49.112;11.930;2022-09-09T06:16:59;15.20;99.90
27801;DHT22;15181;49.112;11.930;2022-09-09T06:19:27;15.20;99.90
27801;DHT22;15181;49.112;11.930;2022-09-09T06:21:56;15.30;99.90
27801;DHT22;15181;49.112;11.930;2022-09-09T06:24:22;15.30;99.90
27801;DHT22;15181;49.112;11.930;2022-09-09T06:26:49;15.30;99.90
27801;DHT22;15181;49.112;11.930;2022-09-09T06:29:17;15.30;99.90
27801;DHT22;15181;49.112;11.930;2022-09-09T06:31:44;15.30;99.90
27801;DHT22;15181;49.112;11.930;2022-09-09T06:34:11;15.30;99.90
27801;DHT22;15181;49.112;11.930;2022-09-09T06:36:38;15.30;99.90
27801;DHT22;15181;49.112;11.930;2022-09-09T06:39:06;15.40;99.90
27801;DHT22;15181;49.112;11.930;2022-09-09T06:41:34;15.50;99.90
27801;DHT22;15181;49.112;11.930;2022-09-09T06:44:01;15.60;99.90
27801;DHT22;15181;49.112;11.930;2022-09-09T06:46:30;15.70;99.90
27801;DHT22;15181;49.112;11.930;2022-09-09T06:48:58;15.80;99.90
27801;DHT22;15181;49.112;11.930;2022-09-09T06:51:27;16.00;99.90
27801;DHT22;15181;49.112;11.930;2022-09-09T06:53:56;16.10;99.90
27801;DHT22;15181;49.112;11.930;2022-09-09T06:56:25;16.20;99.90
27801;DHT22;15181;49.112;11.930;2022-09-09T06:58:54;16.40;99.90
27801;DHT22;15181;49.112;11.930;2022-09-09T07:01:23;16.50;99.90
27801;DHT22;15181;49.112;11.930;2022-09-09T07:03:53;16.80;99.90
27801;DHT22;15181;49.112;11.930;2022-09-09T07:06:21;17.00;99.90
27801;DHT22;15181;49.112;11.930;2022-09-09T07:08:50;17.00;99.90
27801;DHT22;15181;49.112;11.930;2022-09-09T07:11:19;16.90;99.90
27801;DHT22;15181;49.112;11.930;2022-09-09T07:13:46;17.00;99.90
27801;DHT22;15181;49.112;11.930;2022-09-09T07:16:15;17.10;99.90
27801;DHT22;15181;49.112;11.930;2022-09-09T07:18:42;17.10;99.90
27801;DHT22;15181;49.112;11.930;2022-09-09T07:21:11;17.10;99.90
27801;DHT22;15181;49.112;11.930;2022-09-09T07:23:39;17.00;99.90
27801;DHT22;15181;49.112;11.930;2022-09-09T07:26:08;16.80;99.90
27801;DHT22;15181;49.112;11.930;2022-09-09T07:28:36;16.80;99.90
27801;DHT22;15181;49.112;11.930;2022-09-09T07:31:04;16.70;99.90
27801;DHT22;15181;49.112;11.930;2022-09-09T07:33:33;16.70;99.90
27801;DHT22;15181;49.112;11.930;2022-09-09T07:36:05;16.70;99.90
27801;DHT22;15181;49.112;11.930;2022-09-09T07:38:37;16.70;99.90
27801;DHT22;15181;49.112;11.930;2022-09-09T07:41:06;16.60;99.90
27801;DHT22;15181;49.112;11.930;2022-09-09T07:43:34;16.60;99.90
27801;DHT22;15181;49.112;11.930;2022-09-09T07:46:01;16.50;99.90
27801;DHT22;15181;49.112;11.930;2022-09-09T07:48:28;16.50;99.90
27801;DHT22;15181;49.112;11.930;2022-09-09T07:51:04;16.50;99.90
27801;DHT22;15181;49.112;11.930;2022-09-09T07:53:32;16.40;99.90
27801;DHT22;15181;49.112;11.930;2022-09-09T07:56:04;16.40;99.90
27801;DHT22;15181;49.112;11.930;2022-09-09T07:58:34;16.50;99.90
27801;DHT22;15181;49.112;11.930;2022-09-09T08:01:06;16.50;99.90
27801;DHT22;15181;49.112;11.930;2022-09-09T08:03:33;16.50;99.90
27801;DHT22;15181;49.112;11.930;2022-09-09T08:06:01;16.50;99.90
27801;DHT22;15181;49.112;11.930;2022-09-09T08:08:29;16.50;99.90
27801;DHT22;15181;49.112;11.930;2022-09-09T08:11:04;16.50;99.90
27801;DHT22;15181;49.112;11.930;2022-09-09T08:13:33;16.50;99.90
27801;DHT22;15181;49.112;11.930;2022-09-09T08:16:07;16.50;99.90
27801;DHT22;15181;49.112;11.930;2022-09-09T08:18:35;16.60;99.90
27801;DHT22;15181;49.112;11.930;2022-09-09T08:21:08;16.50;99.90
27801;DHT22;15181;49.112;11.930;2022-09-09T08:23:37;16.60;99.90
27801;DHT22;15181;49.112;11.930;2022-09-09T08:26:09;16.60;99.90
27801;DHT22;15181;49.112;11.930;2022-09-09T08:28:37;16.60;99.90
27801;DHT22;15181;49.112;11.930;2022-09-09T08:31:06;16.60;99.90
27801;DHT22;15181;49.112;11.930;2022-09-09T08:33:33;16.70;99.90
27801;DHT22;15181;49.112;11.930;2022-09-09T08:36:02;16.80;99.90
27801;DHT22;15181;49.112;11.930;2022-09-09T08:38:28;16.90;99.90
27801;DHT22;15181;49.112;11.930;2022-09-09T08:41:14;17.00;99.90
27801;DHT22;15181;49.112;11.930;2022-09-09T08:43:46;17.10;99.90
27801;DHT22;15181;49.112;11.930;2022-09-09T08:46:19;17.30;99.90
27801;DHT22;15181;49.112;11.930;2022-09-09T08:48:54;17.30;99.90
27801;DHT22;15181;49.112;11.930;2022-09-09T08:51:24;17.40;99.90
27801;DHT22;15181;49.112;11.930;2022-09-09T08:53:53;17.60;99.90
27801;DHT22;15181;49.112;11.930;2022-09-09T08:56:24;17.80;99.90
27801;DHT22;15181;49.112;11.930;2022-09-09T08:58:53;17.90;99.90
27801;DHT22;15181;49.112;11.930;2022-09-09T09:01:39;17.90;99.90
27801;DHT22;15181;49.112;11.930;2022-09-09T09:07:04;18.00;99.90
27801;DHT22;15181;49.112;11.930;2022-09-09T09:09:40;18.10;99.90
27801;DHT22;15181;49.112;11.930;2022-09-09T09:12:19;18.20;99.90
27801;DHT22;15181;49.112;11.930;2022-09-09T09:14:48;18.30;99.90
27801;DHT22;15181;49.112;11.930;2022-09-09T09:17:17;18.30;99.90
27801;DHT22;15181;49.112;11.930;2022-09-09T09:19:45;18.40;99.90
27801;DHT22;15181;49.112;11.930;2022-09-09T09:22:17;18.40;99.90
27801;DHT22;15181;49.112;11.930;2022-09-09T09:24:51;18.40;99.90
27801;DHT22;15181;49.112;11.930;2022-09-09T09:27:30;18.50;99.90
27801;DHT22;15181;49.112;11.930;2022-09-09T09:30:00;18.60;99.90
27801;DHT22;15181;49.112;11.930;2022-09-09T09:32:30;18.60;99.90
27801;DHT22;15181;49.112;11.930;2022-09-09T09:35:02;18.60;99.90
27801;DHT22;15181;49.112;11.930;2022-09-09T09:37:34;18.70;99.90
27801;DHT22;15181;49.112;11.930;2022-09-09T09:40:09;18.70;99.90
27801;DHT22;15181;49.112;11.930;2022-09-09T09:42:37;18.70;99.90
27801;DHT22;15181;49.112;11.930;2022-09-09T09:45:13;18.70;99.90
27801;DHT22;15181;49.112;11.930;2022-09-09T09:47:44;18.80;99.90
27801;DHT22;15181;49.112;11.930;2022-09-09T09:50:18;18.80;99.90
27801;DHT22;15181;49.112;11.930;2022-09-09T09:52:53;18.90;99.90
27801;DHT22;15181;49.112;11.930;2022-09-09T09:55:21;18.90;99.90
27801;DHT22;15181;49.112;11.930;2022-09-09T09:57:49;18.90;99.90
27801;DHT22;15181;49.112;11.930;2022-09-09T10:00:18;18.90;99.90
27801;DHT22;15181;49.112;11.930;2022-09-09T10:02:46;19.00;99.90
27801;DHT22;15181;49.112;11.930;2022-09-09T10:05:17;18.90;99.90
27801;DHT22;15181;49.112;11.930;2022-09-09T10:07:44;19.00;99.90
27801;DHT22;15181;49.112;11.930;2022-09-09T10:10:15;19.00;99.90
27801;DHT22;15181;49.112;11.930;2022-09-09T10:12:51;19.00;99.90
27801;DHT22;15181;49.112;11.930;2022-09-09T10:15:32;19.10;99.90
27801;DHT22;15181;49.112;11.930;2022-09-09T10:18:13;19.20;99.90
27801;DHT22;15181;49.112;11.930;2022-09-09T10:20:51;19.30;99.90
27801;DHT22;15181;49.112;11.930;2022-09-09T10:23:32;19.50;99.90
27801;DHT22;15181;49.112;11.930;2022-09-09T10:26:15;19.60;99.90
27801;DHT22;15181;49.112;11.930;2022-09-09T10:29:04;19.90;99.90
27801;DHT22;15181;49.112;11.930;2022-09-09T10:31:38;20.20;99.90
27801;DHT22;15181;49.112;11.930;2022-09-09T10:34:19;20.40;99.90
27801;DHT22;15181;49.112;11.930;2022-09-09T10:36:49;20.50;99.90
27801;DHT22;15181;49.112;11.930;2022-09-09T10:39:31;20.60;99.90
27801;DHT22;15181;49.112;11.930;2022-09-09T10:42:05;20.70;99.90
27801;DHT22;15181;49.112;11.930;2022-09-09T10:44:50;20.80;99.90
27801;DHT22;15181;49.112;11.930;2022-09-09T10:47:41;20.90;99.90
27801;DHT22;15181;49.112;11.930;2022-09-09T10:50:28;20.90;99.90
27801;DHT22;15181;49.112;11.930;2022-09-09T10:53:02;21.00;99.90
27801;DHT22;15181;49.112;11.930;2022-09-09T10:55:37;21.10;99.90
27801;DHT22;15181;49.112;11.930;2022-09-09T10:58:09;21.10;99.90
27801;DHT22;15181;49.112;11.930;2022-09-09T11:00:41;21.10;99.90
27801;DHT22;15181;49.112;11.930;2022-09-09T11:03:14;21.20;99.90
27801;DHT22;15181;49.112;11.930;2022-09-09T11:05:45;21.20;99.90
27801;DHT22;15181;49.112;11.930;2022-09-09T11:08:18;21.20;99.90
27801;DHT22;15181;49.112;11.930;2022-09-09T11:10:50;21.20;99.90
27801;DHT22;15181;49.112;11.930;2022-09-09T11:13:22;21.30;99.90
27801;DHT22;15181;49.112;11.930;2022-09-09T11:15:55;21.30;99.90
27801;DHT22;15181;49.112;11.930;2022-09-09T11:18:25;21.50;99.90
27801;DHT22;15181;49.112;11.930;2022-09-09T11:20:58;21.60;99.90
27801;DHT22;15181;49.112;11.930;2022-09-09T11:23:32;21.70;99.90
27801;DHT22;15181;49.112;11.930;2022-09-09T11:26:04;21.80;99.90
27801;DHT22;15181;49.112;11.930;2022-09-09T11:28:46;21.80;99.90
27801;DHT22;15181;49.112;11.930;2022-09-09T11:31:35;21.90;99.90
27801;DHT22;15181;49.112;11.930;2022-09-09T11:34:20;22.00;99.90
27801;DHT22;15181;49.112;11.930;2022-09-09T11:37:00;22.10;99.90
27801;DHT22;15181;49.112;11.930;2022-09-09T11:39:51;22.20;99.90
27801;DHT22;15181;49.112;11.930;2022-09-09T11:42:23;22.10;99.90
27801;DHT22;15181;49.112;11.930;2022-09-09T11:44:51;22.10;99.90
27801;DHT22;15181;49.112;11.930;2022-09-09T11:47:26;22.10;99.90
27801;DHT22;15181;49.112;11.930;2022-09-09T11:50:08;22.10;99.90
27801;DHT22;15181;49.112;11.930;2022-09-09T11:52:38;22.10;99.90
27801;DHT22;15181;49.112;11.930;2022-09-09T11:55:12;22.10;99.90
27801;DHT22;15181;49.112;11.930;2022-09-09T11:57:57;22.10;99.90
27801;DHT22;15181;49.112;11.930;2022-09-09T12:00:32;22.00;99.90
27801;DHT22;15181;49.112;11.930;2022-09-09T12:03:01;22.10;99.90
27801;DHT22;15181;49.112;11.930;2022-09-09T12:05:36;21.90;99.90
27801;DHT22;15181;49.112;11.930;2022-09-09T12:08:05;21.80;99.90
27801;DHT22;15181;49.112;11.930;2022-09-09T12:10:34;21.90;99.90
27801;DHT22;15181;49.112;11.930;2022-09-09T12:13:14;21.90;99.90
27801;DHT22;15181;49.112;11.930;2022-09-09T12:15:47;22.00;99.90
27801;DHT22;15181;49.112;11.930;2022-09-09T12:18:22;21.80;99.90
27801;DHT22;15181;49.112;11.930;2022-09-09T12:20:57;21.90;99.90
27801;DHT22;15181;49.112;11.930;2022-09-09T12:23:37;21.80;99.90
27801;DHT22;15181;49.112;11.930;2022-09-09T12:26:26;21.70;99.90
27801;DHT22;15181;49.112;11.930;2022-09-09T12:29:08;21.60;99.90
27801;DHT22;15181;49.112;11.930;2022-09-09T12:31:44;21.60;99.90
27801;DHT22;15181;49.112;11.930;2022-09-09T12:34:17;21.70;99.90
27801;DHT22;15181;49.112;11.930;2022-09-09T12:36:48;21.70;99.90
27801;DHT22;15181;49.112;11.930;2022-09-09T12:39:22;21.70;99.90
27801;DHT22;15181;49.112;11.930;2022-09-09T12:41:53;21.70;99.90
27801;DHT22;15181;49.112;11.930;2022-09-09T12:44:23;21.80;99.90
27801;DHT22;15181;49.112;11.930;2022-09-09T12:46:51;21.90;99.90
27801;DHT22;15181;49.112;11.930;2022-09-09T12:49:30;22.00;99.90
27801;DHT22;15181;49.112;11.930;2022-09-09T12:52:01;22.10;99.90
27801;DHT22;15181;49.112;11.930;2022-09-09T12:54:31;22.10;99.90
27801;DHT22;15181;49.112;11.930;2022-09-09T12:56:58;22.20;99.90
27801;DHT22;15181;49.112;11.930;2022-09-09T12:59:27;22.10;99.90
27801;DHT22;15181;49.112;11.930;2022-09-09T13:02:01;22.10;99.90
27801;DHT22;15181;49.112;11.930;2022-09-09T13:04:29;22.00;99.90
27801;DHT22;15181;49.112;11.930;2022-09-09T13:07:05;22.00;99.90
27801;DHT22;15181;49.112;11.930;2022-09-09T13:09:37;21.80;99.90
27801;DHT22;15181;49.112;11.930;2022-09-09T13:12:04;21.70;99.90
27801;DHT22;15181;49.112;11.930;2022-09-09T13:14:35;21.60;99.90
27801;DHT22;15181;49.112;11.930;2022-09-09T13:17:04;21.50;99.90
27801;DHT22;15181;49.112;11.930;2022-09-09T13:19:36;21.40;99.90
27801;DHT22;15181;49.112;11.930;2022-09-09T13:22:12;21.40;99.90
27801;DHT22;15181;49.112;11.930;2022-09-09T13:24:39;21.40;99.90
27801;DHT22;15181;49.112;11.930;2022-09-09T13:27:24;21.60;99.90
27801;DHT22;15181;49.112;11.930;2022-09-09T13:29:54;21.70;99.90
27801;DHT22;15181;49.112;11.930;2022-09-09T13:32:23;21.80;99.90
27801;DHT22;15181;49.112;11.930;2022-09-09T13:34:53;21.80;99.90
27801;DHT22;15181;49.112;11.930;2022-09-09T13:37:26;21.90;99.90
27801;DHT22;15181;49.112;11.930;2022-09-09T13:39:55;21.90;99.90
27801;DHT22;15181;49.112;11.930;2022-09-09T13:42:25;22.00;99.90
27801;DHT22;15181;49.112;11.930;2022-09-09T13:44:52;21.90;99.90
27801;DHT22;15181;49.112;11.930;2022-09-09T13:47:26;21.90;99.90
27801;DHT22;15181;49.112;11.930;2022-09-09T13:49:55;21.90;99.90
27801;DHT22;15181;49.112;11.930;2022-09-09T13:52:22;21.70;99.90
27801;DHT22;15181;49.112;11.930;2022-09-09T13:54:49;21.70;99.90
27801;DHT22;15181;49.112;11.930;2022-09-09T13:57:17;21.60;99.90
27801;DHT22;15181;49.112;11.930;2022-09-09T13:59:45;21.60;99.90
27801;DHT22;15181;49.112;11.930;2022-09-09T14:02:12;21.70;99.90
27801;DHT22;15181;49.112;11.930;2022-09-09T14:04:39;21.90;99.90
27801;DHT22;15181;49.112;11.930;2022-09-09T14:07:11;22.10;99.90
27801;DHT22;15181;49.112;11.930;2022-09-09T14:09:39;22.10;99.90
27801;DHT22;15181;49.112;11.930;2022-09-09T14:12:08;22.20;99.90
27801;DHT22;15181;49.112;11.930;2022-09-09T14:14:36;22.20;99.90
27801;DHT22;15181;49.112;11.930;2022-09-09T14:17:03;22.30;99.90
27801;DHT22;15181;49.112;11.930;2022-09-09T14:19:30;22.40;99.90
27801;DHT22;15181;49.112;11.930;2022-09-09T14:21:57;22.30;99.90
27801;DHT22;15181;49.112;11.930;2022-09-09T14:24:25;22.20;99.90
27801;DHT22;15181;49.112;11.930;2022-09-09T14:26:53;22.00;99.90
27801;DHT22;15181;49.112;11.930;2022-09-09T14:29:20;21.90;99.90
27801;DHT22;15181;49.112;11.930;2022-09-09T14:31:46;21.70;99.90
27801;DHT22;15181;49.112;11.930;2022-09-09T14:34:13;21.50;99.90
27801;DHT22;15181;49.112;11.930;2022-09-09T14:36:40;21.60;99.90
27801;DHT22;15181;49.112;11.930;2022-09-09T14:39:07;21.70;99.90
27801;DHT22;15181;49.112;11.930;2022-09-09T14:41:36;21.80;99.90
27801;DHT22;15181;49.112;11.930;2022-09-09T14:44:03;21.70;99.90
27801;DHT22;15181;49.112;11.930;2022-09-09T14:46:30;21.70;99.90
27801;DHT22;15181;49.112;11.930;2022-09-09T14:48:58;21.80;99.90
27801;DHT22;15181;49.112;11.930;2022-09-09T14:51:25;21.70;99.90
27801;DHT22;15181;49.112;11.930;2022-09-09T14:53:57;21.70;99.90
27801;DHT22;15181;49.112;11.930;2022-09-09T14:56:25;21.60;99.90
27801;DHT22;15181;49.112;11.930;2022-09-09T14:58:55;21.50;99.90
27801;DHT22;15181;49.112;11.930;2022-09-09T15:01:23;21.50;99.90
27801;DHT22;15181;49.112;11.930;2022-09-09T15:03:53;21.50;99.90
27801;DHT22;15181;49.112;11.930;2022-09-09T15:06:21;21.50;99.90
27801;DHT22;15181;49.112;11.930;2022-09-09T15:08:51;21.50;99.90
27801;DHT22;15181;49.112;11.930;2022-09-09T15:11:19;21.60;99.90
27801;DHT22;15181;49.112;11.930;2022-09-09T15:13:46;21.60;99.90
27801;DHT22;15181;49.112;11.930;2022-09-09T15:16:17;21.60;99.90
27801;DHT22;15181;49.112;11.930;2022-09-09T15:18:45;21.50;99.90
27801;DHT22;15181;49.112;11.930;2022-09-09T15:21:13;21.40;99.90
27801;DHT22;15181;49.112;11.930;2022-09-09T15:23:41;21.30;99.90
27801;DHT22;15181;49.112;11.930;2022-09-09T15:26:08;21.30;99.90
27801;DHT22;15181;49.112;11.930;2022-09-09T15:28:36;21.30;99.90
27801;DHT22;15181;49.112;11.930;2022-09-09T15:31:06;21.20;99.90
27801;DHT22;15181;49.112;11.930;2022-09-09T15:33:35;21.20;99.90
27801;DHT22;15181;49.112;11.930;2022-09-09T15:36:13;21.20;99.90
27801;DHT22;15181;49.112;11.930;2022-09-09T15:38:40;21.20;99.90
27801;DHT22;15181;49.112;11.930;2022-09-09T15:41:07;21.10;99.90
27801;DHT22;15181;49.112;11.930;2022-09-09T15:43:34;21.10;99.90